sensor_id;sensor_type;location;lat;lon;timestamp;temperature;humidity
12370;DHT22;6249;52.128;9.986;2022-10-19T00:02:10;10.40;99.90
12370;DHT22;6249;52.128;9.986;2022-10-19T00:05:31;10.50;99.90
12370;DHT22;6249;52.128;9.986;2022-10-19T00:08:56;10.40;99.90
12370;DHT22;6249;52.128;9.986;2022-10-19T00:12:19;10.30;99.90
12370;DHT22;6249;52.128;9.986;2022-10-19T00:15:40;10.30;99.90
12370;DHT22;6249;52.128;9.986;2022-10-19T00:19:06;10.40;99.90
12370;DHT22;6249;52.128;9.986;2022-10-19T00:22:28;10.30;99.90
12370;DHT22;6249;52.128;9.986;2022-10-19T00:25:55;10.20;99.90
12370;DHT22;6249;52.128;9.986;2022-10-19T00:29:16;10.10;99.90
12370;DHT22;6249;52.128;9.986;2022-10-19T00:32:41;10.00;99.90
12370;DHT22;6249;52.128;9.986;2022-10-19T00:36:02;9.90;99.90
12370;DHT22;6249;52.128;9.986;2022-10-19T00:39:25;9.90;99.90
12370;DHT22;6249;52.128;9.986;2022-10-19T00:42:46;9.90;99.90
12370;DHT22;6249;52.128;9.986;2022-10-19T00:46:12;9.70;99.90
12370;DHT22;6249;52.128;9.986;2022-10-19T00:49:36;9.70;99.90
12370;DHT22;6249;52.128;9.986;2022-10-19T00:52:59;9.70;99.90
12370;DHT22;6249;52.128;9.986;2022-10-19T00:56:19;9.80;99.90
12370;DHT22;6249;52.128;9.986;2022-10-19T00:59:42;9.60;99.90
12370;DHT22;6249;52.128;9.986;2022-10-19T01:03:04;9.60;99.90
12370;DHT22;6249;52.128;9.986;2022-10-19T01:06:25;9.60;99.90
12370;DHT22;6249;52.128;9.986;2022-10-19T01:09:46;9.60;99.90
12370;DHT22;6249;52.128;9.986;2022-10-19T01:21:31;9.50;99.90
12370;DHT22;6249;52.128;9.986;2022-10-19T01:25:23;9.50;99.90
12370;DHT22;6249;52.128;9.986;2022-10-19T01:29:12;9.40;99.90
12370;DHT22;6249;52.128;9.986;2022-10-19T01:32:53;9.40;99.90
12370;DHT22;6249;52.128;9.986;2022-10-19T01:43:39;9.60;99.90
12370;DHT22;6249;52.128;9.986;2022-10-19T01:47:07;9.70;99.90
12370;DHT22;6249;52.128;9.986;2022-10-19T01:50:37;9.80;99.90
12370;DHT22;6249;52.128;9.986;2022-10-19T01:54:05;9.80;99.90
12370;DHT22;6249;52.128;9.986;2022-10-19T01:57:33;9.90;99.90
12370;DHT22;6249;52.128;9.986;2022-10-19T02:01:02;10.00;99.90
12370;DHT22;6249;52.128;9.986;2022-10-19T02:04:24;10.10;99.90
12370;DHT22;6249;52.128;9.986;2022-10-19T02:07:52;10.20;99.90
12370;DHT22;6249;52.128;9.986;2022-10-19T02:11:15;10.20;99.90
12370;DHT22;6249;52.128;9.986;2022-10-19T02:14:43;10.20;99.90
12370;DHT22;6249;52.128;9.986;2022-10-19T02:18:12;10.20;99.90
12370;DHT22;6249;52.128;9.986;2022-10-19T02:21:34;10.30;99.90
12370;DHT22;6249;52.128;9.986;2022-10-19T02:24:58;10.40;99.90
12370;DHT22;6249;52.128;9.986;2022-10-19T02:28:19;10.40;99.90
12370;DHT22;6249;52.128;9.986;2022-10-19T02:31:41;10.50;99.90
12370;DHT22;6249;52.128;9.986;2022-10-19T02:35:02;10.60;99.90
12370;DHT22;6249;52.128;9.986;2022-10-19T02:38:23;10.70;99.90
12370;DHT22;6249;52.128;9.986;2022-10-19T02:42:05;10.80;99.90
12370;DHT22;6249;52.128;9.986;2022-10-19T02:45:32;10.80;99.90
12370;DHT22;6249;52.128;9.986;2022-10-19T02:48:55;10.90;99.90
12370;DHT22;6249;52.128;9.986;2022-10-19T02:52:21;10.70;99.90
12370;DHT22;6249;52.128;9.986;2022-10-19T02:55:42;10.80;99.90
12370;DHT22;6249;52.128;9.986;2022-10-19T02:59:08;10.80;99.90
12370;DHT22;6249;52.128;9.986;2022-10-19T03:02:28;10.80;99.90
12370;DHT22;6249;52.128;9.986;2022-10-19T03:05:51;10.70;99.90
12370;DHT22;6249;52.128;9.986;2022-10-19T03:09:14;10.70;99.90
12370;DHT22;6249;52.128;9.986;2022-10-19T03:12:35;10.70;99.90
12370;DHT22;6249;52.128;9.986;2022-10-19T03:15:56;10.70;99.90
12370;DHT22;6249;52.128;9.986;2022-10-19T03:19:18;10.80;99.90
12370;DHT22;6249;52.128;9.986;2022-10-19T03:22:39;10.70;99.90
12370;DHT22;6249;52.128;9.986;2022-10-19T03:26:02;10.70;99.90
12370;DHT22;6249;52.128;9.986;2022-10-19T03:29:23;10.70;99.90
12370;DHT22;6249;52.128;9.986;2022-10-19T03:32:46;10.80;99.90
12370;DHT22;6249;52.128;9.986;2022-10-19T03:36:28;10.80;99.90
12370;DHT22;6249;52.128;9.986;2022-10-19T03:39:49;10.80;99.90
12370;DHT22;6249;52.128;9.986;2022-10-19T03:43:12;10.80;99.90
12370;DHT22;6249;52.128;9.986;2022-10-19T03:46:36;10.90;99.90
12370;DHT22;6249;52.128;9.986;2022-10-19T03:49:56;10.90;99.90
12370;DHT22;6249;52.128;9.986;2022-10-19T03:53:17;10.90;99.90
12370;DHT22;6249;52.128;9.986;2022-10-19T03:56:40;11.00;99.90
12370;DHT22;6249;52.128;9.986;2022-10-19T04:00:02;11.00;99.90
12370;DHT22;6249;52.128;9.986;2022-10-19T04:03:25;11.00;99.90
12370;DHT22;6249;52.128;9.986;2022-10-19T04:06:47;11.10;99.90
12370;DHT22;6249;52.128;9.986;2022-10-19T04:10:09;11.10;99.90
12370;DHT22;6249;52.128;9.986;2022-10-19T04:13:30;11.10;99.90
12370;DHT22;6249;52.128;9.986;2022-10-19T04:16:51;11.10;99.90
12370;DHT22;6249;52.128;9.986;2022-10-19T04:20:11;11.00;99.90
12370;DHT22;6249;52.128;9.986;2022-10-19T04:23:34;11.00;99.90
12370;DHT22;6249;52.128;9.986;2022-10-19T04:26:55;11.00;99.90
12370;DHT22;6249;52.128;9.986;2022-10-19T04:30:16;11.10;99.90
12370;DHT22;6249;52.128;9.986;2022-10-19T04:33:37;11.10;99.90
12370;DHT22;6249;52.128;9.986;2022-10-19T04:36:58;11.10;99.90
12370;DHT22;6249;52.128;9.986;2022-10-19T04:40:19;11.10;99.90
12370;DHT22;6249;52.128;9.986;2022-10-19T04:43:44;11.20;99.90
12370;DHT22;6249;52.128;9.986;2022-10-19T04:47:05;11.10;99.90
12370;DHT22;6249;52.128;9.986;2022-10-19T04:50:28;11.10;99.90
12370;DHT22;6249;52.128;9.986;2022-10-19T04:53:49;11.00;99.90
12370;DHT22;6249;52.128;9.986;2022-10-19T04:57:14;11.10;99.90
12370;DHT22;6249;52.128;9.986;2022-10-19T05:00:40;11.00;99.90
12370;DHT22;6249;52.128;9.986;2022-10-19T05:04:01;11.10;99.90
12370;DHT22;6249;52.128;9.986;2022-10-19T05:07:22;11.00;99.90
12370;DHT22;6249;52.128;9.986;2022-10-19T05:10:45;11.10;99.90
12370;DHT22;6249;52.128;9.986;2022-10-19T05:14:06;11.10;99.90
12370;DHT22;6249;52.128;9.986;2022-10-19T05:17:30;11.10;99.90
12370;DHT22;6249;52.128;9.986;2022-10-19T05:20:51;11.10;99.90
12370;DHT22;6249;52.128;9.986;2022-10-19T05:24:19;11.00;99.90
12370;DHT22;6249;52.128;9.986;2022-10-19T05:27:41;11.00;99.90
12370;DHT22;6249;52.128;9.986;2022-10-19T05:31:10;11.00;99.90
12370;DHT22;6249;52.128;9.986;2022-10-19T05:34:31;11.00;99.90
12370;DHT22;6249;52.128;9.986;2022-10-19T05:37:54;11.20;99.90
12370;DHT22;6249;52.128;9.986;2022-10-19T05:41:18;11.00;99.90
12370;DHT22;6249;52.128;9.986;2022-10-19T05:44:39;11.10;99.90
12370;DHT22;6249;52.128;9.986;2022-10-19T05:48:02;11.10;99.90
12370;DHT22;6249;52.128;9.986;2022-10-19T05:51:27;11.10;99.90
12370;DHT22;6249;52.128;9.986;2022-10-19T05:54:48;11.20;99.90
12370;DHT22;6249;52.128;9.986;2022-10-19T05:58:08;11.10;99.90
12370;DHT22;6249;52.128;9.986;2022-10-19T06:01:29;11.20;99.90
12370;DHT22;6249;52.128;9.986;2022-10-19T06:04:52;11.20;99.90
12370;DHT22;6249;52.128;9.986;2022-10-19T06:08:15;11.20;99.90
12370;DHT22;6249;52.128;9.986;2022-10-19T06:11:40;11.10;99.90
12370;DHT22;6249;52.128;9.986;2022-10-19T06:15:01;11.20;99.90
12370;DHT22;6249;52.128;9.986;2022-10-19T06:18:24;11.20;99.90
12370;DHT22;6249;52.128;9.986;2022-10-19T06:21:45;11.20;99.90
12370;DHT22;6249;52.128;9.986;2022-10-19T06:25:08;11.30;99.90
12370;DHT22;6249;52.128;9.986;2022-10-19T06:28:34;11.30;99.90
12370;DHT22;6249;52.128;9.986;2022-10-19T06:31:54;11.30;99.90
12370;DHT22;6249;52.128;9.986;2022-10-19T06:35:15;11.30;99.90
12370;DHT22;6249;52.128;9.986;2022-10-19T06:38:36;11.30;99.90
12370;DHT22;6249;52.128;9.986;2022-10-19T06:41:57;11.30;99.90
12370;DHT22;6249;52.128;9.986;2022-10-19T06:45:17;11.30;99.90
12370;DHT22;6249;52.128;9.986;2022-10-19T06:48:40;11.40;99.90
12370;DHT22;6249;52.128;9.986;2022-10-19T06:52:03;11.30;99.90
12370;DHT22;6249;52.128;9.986;2022-10-19T06:55:29;11.40;99.90
12370;DHT22;6249;52.128;9.986;2022-10-19T06:58:49;11.40;99.90
12370;DHT22;6249;52.128;9.986;2022-10-19T07:02:12;11.50;99.90
12370;DHT22;6249;52.128;9.986;2022-10-19T07:05:33;11.50;99.90
12370;DHT22;6249;52.128;9.986;2022-10-19T07:08:53;11.70;99.90
12370;DHT22;6249;52.128;9.986;2022-10-19T07:12:16;11.70;99.90
12370;DHT22;6249;52.128;9.986;2022-10-19T07:15:37;11.70;99.90
12370;DHT22;6249;52.128;9.986;2022-10-19T07:18:59;11.80;99.90
12370;DHT22;6249;52.128;9.986;2022-10-19T07:22:22;11.80;99.90
12370;DHT22;6249;52.128;9.986;2022-10-19T07:25:43;11.90;99.90
12370;DHT22;6249;52.128;9.986;2022-10-19T07:29:04;12.00;99.90
12370;DHT22;6249;52.128;9.986;2022-10-19T07:32:24;12.00;99.90
12370;DHT22;6249;52.128;9.986;2022-10-19T07:35:45;12.20;99.90
12370;DHT22;6249;52.128;9.986;2022-10-19T07:39:06;12.20;99.90
12370;DHT22;6249;52.128;9.986;2022-10-19T07:42:32;12.30;99.90
12370;DHT22;6249;52.128;9.986;2022-10-19T07:46:05;12.50;99.90
12370;DHT22;6249;52.128;9.986;2022-10-19T07:49:26;12.60;99.90
12370;DHT22;6249;52.128;9.986;2022-10-19T07:52:51;12.60;99.90
12370;DHT22;6249;52.128;9.986;2022-10-19T07:56:24;12.70;99.90
12370;DHT22;6249;52.128;9.986;2022-10-19T07:59:45;12.80;99.90
12370;DHT22;6249;52.128;9.986;2022-10-19T08:03:06;12.80;99.90
12370;DHT22;6249;52.128;9.986;2022-10-19T08:06:27;12.90;99.90
12370;DHT22;6249;52.128;9.986;2022-10-19T08:09:50;13.00;99.90
12370;DHT22;6249;52.128;9.986;2022-10-19T08:13:11;13.20;99.90
12370;DHT22;6249;52.128;9.986;2022-10-19T08:16:37;13.30;99.90
12370;DHT22;6249;52.128;9.986;2022-10-19T08:20:00;13.40;99.90
12370;DHT22;6249;52.128;9.986;2022-10-19T08:23:21;13.50;99.90
12370;DHT22;6249;52.128;9.986;2022-10-19T08:26:46;13.60;99.90
12370;DHT22;6249;52.128;9.986;2022-10-19T08:30:10;13.70;99.90
12370;DHT22;6249;52.128;9.986;2022-10-19T08:33:31;13.80;99.90
12370;DHT22;6249;52.128;9.986;2022-10-19T08:36:51;14.00;99.90
12370;DHT22;6249;52.128;9.986;2022-10-19T08:40:22;14.20;99.90
12370;DHT22;6249;52.128;9.986;2022-10-19T08:44:02;14.30;99.90
12370;DHT22;6249;52.128;9.986;2022-10-19T08:51:12;14.30;99.90
12370;DHT22;6249;52.128;9.986;2022-10-19T08:54:43;14.40;99.90
12370;DHT22;6249;52.128;9.986;2022-10-19T08:58:27;14.40;99.90
12370;DHT22;6249;52.128;9.986;2022-10-19T09:01:57;14.50;99.90
12370;DHT22;6249;52.128;9.986;2022-10-19T09:05:23;14.70;99.90
12370;DHT22;6249;52.128;9.986;2022-10-19T09:08:49;14.70;99.90
12370;DHT22;6249;52.128;9.986;2022-10-19T09:12:13;14.80;99.90
12370;DHT22;6249;52.128;9.986;2022-10-19T09:15:50;14.90;99.90
12370;DHT22;6249;52.128;9.986;2022-10-19T09:19:17;15.10;99.90
12370;DHT22;6249;52.128;9.986;2022-10-19T09:22:48;15.10;99.90
12370;DHT22;6249;52.128;9.986;2022-10-19T09:26:14;15.10;99.90
12370;DHT22;6249;52.128;9.986;2022-10-19T09:29:48;15.20;99.90
12370;DHT22;6249;52.128;9.986;2022-10-19T09:33:22;15.20;99.90
12370;DHT22;6249;52.128;9.986;2022-10-19T09:36:51;15.20;99.90
12370;DHT22;6249;52.128;9.986;2022-10-19T09:40:21;15.20;99.90
12370;DHT22;6249;52.128;9.986;2022-10-19T09:43:50;15.40;99.90
12370;DHT22;6249;52.128;9.986;2022-10-19T09:50:59;15.60;99.90
12370;DHT22;6249;52.128;9.986;2022-10-19T09:54:35;15.80;99.90
12370;DHT22;6249;52.128;9.986;2022-10-19T10:01:38;15.80;99.90
12370;DHT22;6249;52.128;9.986;2022-10-19T10:05:04;15.80;99.90
12370;DHT22;6249;52.128;9.986;2022-10-19T10:08:30;16.20;99.90
12370;DHT22;6249;52.128;9.986;2022-10-19T10:11:52;16.20;99.90
12370;DHT22;6249;52.128;9.986;2022-10-19T10:15:28;16.00;99.90
12370;DHT22;6249;52.128;9.986;2022-10-19T10:19:03;16.00;99.90
12370;DHT22;6249;52.128;9.986;2022-10-19T10:22:31;15.90;99.50
12370;DHT22;6249;52.128;9.986;2022-10-19T10:25:56;15.70;99.90
12370;DHT22;6249;52.128;9.986;2022-10-19T10:32:50;16.00;99.90
12370;DHT22;6249;52.128;9.986;2022-10-19T10:36:12;16.70;99.90
12370;DHT22;6249;52.128;9.986;2022-10-19T10:39:39;16.90;99.20
12370;DHT22;6249;52.128;9.986;2022-10-19T10:43:17;16.90;99.30
12370;DHT22;6249;52.128;9.986;2022-10-19T10:46:53;17.00;99.70
12370;DHT22;6249;52.128;9.986;2022-10-19T10:50:23;17.10;98.90
12370;DHT22;6249;52.128;9.986;2022-10-19T10:53:48;17.60;98.30
12370;DHT22;6249;52.128;9.986;2022-10-19T10:57:18;17.80;97.80
12370;DHT22;6249;52.128;9.986;2022-10-19T11:00:40;18.00;97.10
12370;DHT22;6249;52.128;9.986;2022-10-19T11:04:07;18.20;96.70
12370;DHT22;6249;52.128;9.986;2022-10-19T11:07:31;17.70;98.50
12370;DHT22;6249;52.128;9.986;2022-10-19T11:14:45;17.20;99.00
12370;DHT22;6249;52.128;9.986;2022-10-19T11:18:23;17.50;98.40
12370;DHT22;6249;52.128;9.986;2022-10-19T11:22:01;17.70;97.60
12370;DHT22;6249;52.128;9.986;2022-10-19T11:36:37;20.00;94.00
12370;DHT22;6249;52.128;9.986;2022-10-19T12:03:08;18.10;95.80
12370;DHT22;6249;52.128;9.986;2022-10-19T12:14:02;17.20;97.50
12370;DHT22;6249;52.128;9.986;2022-10-19T12:17:44;17.10;97.50
12370;DHT22;6249;52.128;9.986;2022-10-19T12:24:52;16.70;99.00
12370;DHT22;6249;52.128;9.986;2022-10-19T12:28:37;16.60;99.60
12370;DHT22;6249;52.128;9.986;2022-10-19T12:32:01;16.70;99.10
12370;DHT22;6249;52.128;9.986;2022-10-19T12:35:29;16.60;99.90
12370;DHT22;6249;52.128;9.986;2022-10-19T12:46:47;16.10;99.80
12370;DHT22;6249;52.128;9.986;2022-10-19T12:50:08;16.30;99.90
12370;DHT22;6249;52.128;9.986;2022-10-19T12:53:33;16.50;99.90
12370;DHT22;6249;52.128;9.986;2022-10-19T12:57:02;16.50;99.80
12370;DHT22;6249;52.128;9.986;2022-10-19T13:00:24;16.70;98.60
12370;DHT22;6249;52.128;9.986;2022-10-19T13:03:46;16.80;98.40
12370;DHT22;6249;52.128;9.986;2022-10-19T13:07:08;17.10;98.10
12370;DHT22;6249;52.128;9.986;2022-10-19T13:10:31;17.00;98.70
12370;DHT22;6249;52.128;9.986;2022-10-19T13:13:59;16.90;98.70
12370;DHT22;6249;52.128;9.986;2022-10-19T13:20:58;16.60;99.10
12370;DHT22;6249;52.128;9.986;2022-10-19T13:27:46;17.30;98.50
12370;DHT22;6249;52.128;9.986;2022-10-19T13:31:26;17.70;97.40
12370;DHT22;6249;52.128;9.986;2022-10-19T13:34:47;17.50;96.90
12370;DHT22;6249;52.128;9.986;2022-10-19T13:38:18;17.40;98.40
12370;DHT22;6249;52.128;9.986;2022-10-19T13:41:45;17.50;98.20
12370;DHT22;6249;52.128;9.986;2022-10-19T13:45:20;17.70;97.00
12370;DHT22;6249;52.128;9.986;2022-10-19T13:53:11;17.00;98.10
12370;DHT22;6249;52.128;9.986;2022-10-19T13:57:18;16.80;98.70
12370;DHT22;6249;52.128;9.986;2022-10-19T14:04:35;16.60;98.70
12370;DHT22;6249;52.128;9.986;2022-10-19T14:08:18;16.60;99.00
12370;DHT22;6249;52.128;9.986;2022-10-19T14:11:46;16.50;99.20
12370;DHT22;6249;52.128;9.986;2022-10-19T14:15:20;16.70;99.30
12370;DHT22;6249;52.128;9.986;2022-10-19T14:18:53;17.80;97.70
12370;DHT22;6249;52.128;9.986;2022-10-19T14:29:23;21.40;91.00
12370;DHT22;6249;52.128;9.986;2022-10-19T14:32:43;21.60;90.10
12370;DHT22;6249;52.128;9.986;2022-10-19T14:40:01;21.90;88.70
12370;DHT22;6249;52.128;9.986;2022-10-19T14:43:26;21.10;90.80
12370;DHT22;6249;52.128;9.986;2022-10-19T14:46:49;21.10;90.90
12370;DHT22;6249;52.128;9.986;2022-10-19T14:50:13;21.60;90.30
12370;DHT22;6249;52.128;9.986;2022-10-19T14:53:40;21.70;89.50
12370;DHT22;6249;52.128;9.986;2022-10-19T14:57:11;21.40;91.00
12370;DHT22;6249;52.128;9.986;2022-10-19T15:00:33;21.60;90.30
12370;DHT22;6249;52.128;9.986;2022-10-19T15:03:54;21.50;90.20
12370;DHT22;6249;52.128;9.986;2022-10-19T15:07:18;20.50;91.60
12370;DHT22;6249;52.128;9.986;2022-10-19T15:10:48;20.60;91.60
12370;DHT22;6249;52.128;9.986;2022-10-19T15:17:35;20.40;90.80
12370;DHT22;6249;52.128;9.986;2022-10-19T15:21:16;20.10;91.40
12370;DHT22;6249;52.128;9.986;2022-10-19T15:28:32;19.70;92.30
12370;DHT22;6249;52.128;9.986;2022-10-19T15:31:55;19.40;92.60
12370;DHT22;6249;52.128;9.986;2022-10-19T15:35:42;19.20;93.10
12370;DHT22;6249;52.128;9.986;2022-10-19T15:39:07;18.90;93.90
12370;DHT22;6249;52.128;9.986;2022-10-19T15:42:39;19.10;93.90
12370;DHT22;6249;52.128;9.986;2022-10-19T15:46:29;19.10;93.60
12370;DHT22;6249;52.128;9.986;2022-10-19T15:49:52;18.60;94.20
12370;DHT22;6249;52.128;9.986;2022-10-19T15:53:16;18.20;95.10
12370;DHT22;6249;52.128;9.986;2022-10-19T15:56:41;17.90;95.40
12370;DHT22;6249;52.128;9.986;2022-10-19T16:00:14;17.30;96.70
12370;DHT22;6249;52.128;9.986;2022-10-19T16:03:34;16.70;97.60
12370;DHT22;6249;52.128;9.986;2022-10-19T16:06:55;16.30;98.10
12370;DHT22;6249;52.128;9.986;2022-10-19T16:10:18;15.90;99.10
12370;DHT22;6249;52.128;9.986;2022-10-19T16:13:44;15.50;99.90
12370;DHT22;6249;52.128;9.986;2022-10-19T16:17:07;15.00;99.90
12370;DHT22;6249;52.128;9.986;2022-10-19T16:20:33;14.60;99.90
12370;DHT22;6249;52.128;9.986;2022-10-19T16:23:54;14.30;99.90
12370;DHT22;6249;52.128;9.986;2022-10-19T16:27:14;14.10;99.90
12370;DHT22;6249;52.128;9.986;2022-10-19T16:30:35;13.90;99.90
12370;DHT22;6249;52.128;9.986;2022-10-19T16:33:58;13.60;99.90
12370;DHT22;6249;52.128;9.986;2022-10-19T16:37:19;13.30;99.90
12370;DHT22;6249;52.128;9.986;2022-10-19T16:40:39;13.10;99.90
12370;DHT22;6249;52.128;9.986;2022-10-19T16:44:02;13.00;99.90
12370;DHT22;6249;52.128;9.986;2022-10-19T16:47:25;12.90;99.90
12370;DHT22;6249;52.128;9.986;2022-10-19T16:54:24;12.60;99.90
12370;DHT22;6249;52.128;9.986;2022-10-19T16:57:48;12.60;99.90
12370;DHT22;6249;52.128;9.986;2022-10-19T17:01:17;12.50;99.90
12370;DHT22;6249;52.128;9.986;2022-10-19T17:04:38;12.30;99.90
12370;DHT22;6249;52.128;9.986;2022-10-19T17:08:01;12.30;99.90
12370;DHT22;6249;52.128;9.986;2022-10-19T17:11:33;12.20;99.90
12370;DHT22;6249;52.128;9.986;2022-10-19T17:14:56;12.00;99.90
12370;DHT22;6249;52.128;9.986;2022-10-19T17:18:21;12.00;99.90
12370;DHT22;6249;52.128;9.986;2022-10-19T17:21:44;11.80;99.90
12370;DHT22;6249;52.128;9.986;2022-10-19T17:25:05;11.70;99.90
12370;DHT22;6249;52.128;9.986;2022-10-19T17:28:26;11.50;99.90
12370;DHT22;6249;52.128;9.986;2022-10-19T17:31:47;11.40;99.90
12370;DHT22;6249;52.128;9.986;2022-10-19T17:35:08;11.20;99.90
12370;DHT22;6249;52.128;9.986;2022-10-19T17:38:28;11.10;99.90
12370;DHT22;6249;52.128;9.986;2022-10-19T17:41:50;11.00;99.90
12370;DHT22;6249;52.128;9.986;2022-10-19T17:45:14;11.00;99.90
12370;DHT22;6249;52.128;9.986;2022-10-19T17:48:36;10.90;99.90
12370;DHT22;6249;52.128;9.986;2022-10-19T17:51:57;11.00;99.90
12370;DHT22;6249;52.128;9.986;2022-10-19T17:55:24;10.70;99.90
12370;DHT22;6249;52.128;9.986;2022-10-19T17:58:47;10.80;99.90
12370;DHT22;6249;52.128;9.986;2022-10-19T18:02:09;10.70;99.90
12370;DHT22;6249;52.128;9.986;2022-10-19T18:05:30;10.60;99.90
12370;DHT22;6249;52.128;9.986;2022-10-19T18:08:54;10.40;99.90
12370;DHT22;6249;52.128;9.986;2022-10-19T18:12:15;10.30;99.90
12370;DHT22;6249;52.128;9.986;2022-10-19T18:15:36;10.40;99.90
12370;DHT22;6249;52.128;9.986;2022-10-19T18:18:58;10.30;99.90
12370;DHT22;6249;52.128;9.986;2022-10-19T18:22:19;10.20;99.90
12370;DHT22;6249;52.128;9.986;2022-10-19T18:25:43;10.10;99.90
12370;DHT22;6249;52.128;9.986;2022-10-19T18:29:16;10.00;99.90
12370;DHT22;6249;52.128;9.986;2022-10-19T18:32:37;10.00;99.90
12370;DHT22;6249;52.128;9.986;2022-10-19T18:36:00;9.90;99.90
12370;DHT22;6249;52.128;9.986;2022-10-19T18:39:23;9.90;99.90
12370;DHT22;6249;52.128;9.986;2022-10-19T18:42:44;9.70;99.90
12370;DHT22;6249;52.128;9.986;2022-10-19T18:46:05;9.80;99.90
12370;DHT22;6249;52.128;9.986;2022-10-19T18:49:26;9.70;99.90
12370;DHT22;6249;52.128;9.986;2022-10-19T18:52:46;9.70;99.90
12370;DHT22;6249;52.128;9.986;2022-10-19T18:56:11;9.60;99.90
12370;DHT22;6249;52.128;9.986;2022-10-19T18:59:32;9.60;99.90
12370;DHT22;6249;52.128;9.986;2022-10-19T19:02:55;9.60;99.90
12370;DHT22;6249;52.128;9.986;2022-10-19T19:06:19;9.60;99.90
12370;DHT22;6249;52.128;9.986;2022-10-19T19:09:40;9.60;99.90
12370;DHT22;6249;52.128;9.986;2022-10-19T19:13:03;9.60;99.90
12370;DHT22;6249;52.128;9.986;2022-10-19T19:16:28;9.50;99.90
12370;DHT22;6249;52.128;9.986;2022-10-19T19:19:51;9.40;99.90
12370;DHT22;6249;52.128;9.986;2022-10-19T19:23:12;9.30;99.90
12370;DHT22;6249;52.128;9.986;2022-10-19T19:26:37;9.30;99.90
12370;DHT22;6249;52.128;9.986;2022-10-19T19:29:58;9.30;99.90
12370;DHT22;6249;52.128;9.986;2022-10-19T19:33:19;9.30;99.90
12370;DHT22;6249;52.128;9.986;2022-10-19T19:36:40;9.30;99.90
12370;DHT22;6249;52.128;9.986;2022-10-19T19:40:08;9.20;99.90
12370;DHT22;6249;52.128;9.986;2022-10-19T19:43:35;9.20;99.90
12370;DHT22;6249;52.128;9.986;2022-10-19T19:46:58;9.10;99.90
12370;DHT22;6249;52.128;9.986;2022-10-19T19:50:19;9.00;99.90
12370;DHT22;6249;52.128;9.986;2022-10-19T19:53:42;9.00;99.90
12370;DHT22;6249;52.128;9.986;2022-10-19T19:57:05;9.00;99.90
12370;DHT22;6249;52.128;9.986;2022-10-19T20:00:27;9.00;99.90
12370;DHT22;6249;52.128;9.986;2022-10-19T20:03:50;9.00;99.90
12370;DHT22;6249;52.128;9.986;2022-10-19T20:07:13;8.90;99.90
12370;DHT22;6249;52.128;9.986;2022-10-19T20:10:41;8.90;99.90
12370;DHT22;6249;52.128;9.986;2022-10-19T20:14:04;8.90;99.90
12370;DHT22;6249;52.128;9.986;2022-10-19T20:17:27;8.90;99.90
12370;DHT22;6249;52.128;9.986;2022-10-19T20:20:48;8.70;99.90
12370;DHT22;6249;52.128;9.986;2022-10-19T20:24:11;8.80;99.90
12370;DHT22;6249;52.128;9.986;2022-10-19T20:27:34;8.80;99.90
12370;DHT22;6249;52.128;9.986;2022-10-19T20:31:07;8.80;99.90
12370;DHT22;6249;52.128;9.986;2022-10-19T20:34:28;8.80;99.90
12370;DHT22;6249;52.128;9.986;2022-10-19T20:37:49;8.70;99.90
12370;DHT22;6249;52.128;9.986;2022-10-19T20:41:12;8.70;99.90
12370;DHT22;6249;52.128;9.986;2022-10-19T20:44:35;8.60;99.90
12370;DHT22;6249;52.128;9.986;2022-10-19T20:47:56;8.60;99.90
12370;DHT22;6249;52.128;9.986;2022-10-19T20:51:25;8.50;99.90
12370;DHT22;6249;52.128;9.986;2022-10-19T20:54:53;8.50;99.90
12370;DHT22;6249;52.128;9.986;2022-10-19T20:58:13;8.50;99.90
12370;DHT22;6249;52.128;9.986;2022-10-19T21:01:38;8.40;99.90
12370;DHT22;6249;52.128;9.986;2022-10-19T21:04:59;8.40;99.90
12370;DHT22;6249;52.128;9.986;2022-10-19T21:08:22;8.20;99.90
12370;DHT22;6249;52.128;9.986;2022-10-19T21:11:43;8.20;99.90
12370;DHT22;6249;52.128;9.986;2022-10-19T21:15:04;8.10;99.90
12370;DHT22;6249;52.128;9.986;2022-10-19T21:18:25;8.00;99.90
12370;DHT22;6249;52.128;9.986;2022-10-19T21:21:49;8.10;99.90
12370;DHT22;6249;52.128;9.986;2022-10-19T21:25:09;7.90;99.90
12370;DHT22;6249;52.128;9.986;2022-10-19T21:28:30;7.90;99.90
12370;DHT22;6249;52.128;9.986;2022-10-19T21:31:51;7.80;99.90
12370;DHT22;6249;52.128;9.986;2022-10-19T21:35:15;7.80;99.90
12370;DHT22;6249;52.128;9.986;2022-10-19T21:38:35;7.70;99.90
12370;DHT22;6249;52.128;9.986;2022-10-19T21:41:56;7.60;99.90
12370;DHT22;6249;52.128;9.986;2022-10-19T21:45:17;7.60;99.90
12370;DHT22;6249;52.128;9.986;2022-10-19T21:48:38;7.60;99.90
12370;DHT22;6249;52.128;9.986;2022-10-19T21:52:01;7.60;99.90
12370;DHT22;6249;52.128;9.986;2022-10-19T21:55:28;7.60;99.90
12370;DHT22;6249;52.128;9.986;2022-10-19T21:58:52;7.50;99.90
12370;DHT22;6249;52.128;9.986;2022-10-19T22:02:15;7.40;99.90
12370;DHT22;6249;52.128;9.986;2022-10-19T22:05:36;7.30;99.90
12370;DHT22;6249;52.128;9.986;2022-10-19T22:08:57;7.20;99.90
12370;DHT22;6249;52.128;9.986;2022-10-19T22:12:21;7.20;99.90
12370;DHT22;6249;52.128;9.986;2022-10-19T22:15:42;7.10;99.90
12370;DHT22;6249;52.128;9.986;2022-10-19T22:19:05;7.10;99.90
12370;DHT22;6249;52.128;9.986;2022-10-19T22:22:26;7.00;99.90
12370;DHT22;6249;52.128;9.986;2022-10-19T22:25:46;6.90;99.90
12370;DHT22;6249;52.128;9.986;2022-10-19T22:29:07;6.90;99.90
12370;DHT22;6249;52.128;9.986;2022-10-19T22:32:30;6.80;99.90
12370;DHT22;6249;52.128;9.986;2022-10-19T22:35:58;6.70;99.90
12370;DHT22;6249;52.128;9.986;2022-10-19T22:39:19;6.70;99.90
12370;DHT22;6249;52.128;9.986;2022-10-19T22:42:40;6.70;99.90
12370;DHT22;6249;52.128;9.986;2022-10-19T22:46:05;6.70;99.90
12370;DHT22;6249;52.128;9.986;2022-10-19T22:49:26;6.60;99.90
12370;DHT22;6249;52.128;9.986;2022-10-19T22:52:46;6.60;99.90
12370;DHT22;6249;52.128;9.986;2022-10-19T22:56:11;6.60;99.90
12370;DHT22;6249;52.128;9.986;2022-10-19T22:59:32;6.60;99.90
12370;DHT22;6249;52.128;9.986;2022-10-19T23:02:53;6.60;99.90
12370;DHT22;6249;52.128;9.986;2022-10-19T23:06:16;6.50;99.90
12370;DHT22;6249;52.128;9.986;2022-10-19T23:09:36;6.40;99.90
12370;DHT22;6249;52.128;9.986;2022-10-19T23:12:57;6.40;99.90
12370;DHT22;6249;52.128;9.986;2022-10-19T23:16:20;6.30;99.90
12370;DHT22;6249;52.128;9.986;2022-10-19T23:19:40;6.30;99.90
12370;DHT22;6249;52.128;9.986;2022-10-19T23:23:01;6.30;99.90
12370;DHT22;6249;52.128;9.986;2022-10-19T23:26:22;6.20;99.90
12370;DHT22;6249;52.128;9.986;2022-10-19T23:29:48;6.10;99.90
12370;DHT22;6249;52.128;9.986;2022-10-19T23:33:11;6.10;99.90
12370;DHT22;6249;52.128;9.986;2022-10-19T23:36:32;6.00;99.90
12370;DHT22;6249;52.128;9.986;2022-10-19T23:39:55;5.90;99.90
12370;DHT22;6249;52.128;9.986;2022-10-19T23:43:18;5.90;99.90
12370;DHT22;6249;52.128;9.986;2022-10-19T23:46:41;5.90;99.90
12370;DHT22;6249;52.128;9.986;2022-10-19T23:50:02;5.90;99.90
12370;DHT22;6249;52.128;9.986;2022-10-19T23:53:23;5.80;99.90
12370;DHT22;6249;52.128;9.986;2022-10-19T23:56:44;5.90;99.90
